Time;durP1;ratioP1;P1;durP2;ratioP2;P2;SDS_P1;SDS_P2;PMS_P1;PMS_P2;Temp;Humidity;BMP_temperature;BMP_pressure;BME280_temperature;BME280_humidity;BME280_pressure;Samples;Min_cycle;Max_cycle;Signal;HPM_P1;HPM_P2
2024/04/23 00:03:04;;;;;;;4.67;4.10;;;;;;;;;;6228303;22;20519;-87
2024/04/23 00:05:48;;;;;;;5.07;4.57;;;;;;;;;;6285968;22;20481;-89
2024/04/23 00:08:51;;;;;;;6.03;5.17;;;;;;;;;;6439007;22;20469;-88
2024/04/23 00:11:36;;;;;;;5.70;4.37;;;;;;;;;;6534003;22;20445;-87
2024/04/23 00:15:15;;;;;;;;;;;;;;;;;;;;;
2024/04/23 00:25:31;;;;;;;6.60;4.70;;;;;;;;;;6375767;22;20516;-88
2024/04/23 00:28:54;;;;;;;;;;;;;;;;;;;;;
2024/04/23 00:35:38;;;;;;;4.83;4.30;;;;;;;;;;6146525;23;20550;-89
2024/04/23 00:38:37;;;;;;;6.20;4.60;;;;;;;;;;6226926;22;20445;-89
2024/04/23 00:41:14;;;;;;;5.03;4.53;;;;;;;;;;6355703;22;20547;-89
2024/04/23 01:09:02;;;;;;;4.57;4.17;;;;;;;;;;6601025;21;20547;-89
2024/04/23 01:11:58;;;;;;;5.70;5.00;;;;;;;;;;6520298;21;20448;-87
2024/04/23 01:15:12;;;;;;;;;;;;;;;;;;;;;
2024/04/23 01:17:55;;;;;;;7.17;5.90;;;;;;;;;;6581392;21;20452;-89
2024/04/23 01:20:53;;;;;;;;;;;;;;;;;;;;;
2024/04/23 01:23:53;;;;;;;6.73;5.97;;;;;;;;;;6378747;22;20904;-88
2024/04/23 01:26:47;;;;;;;7.23;5.40;;;;;;;;;;6338472;22;20537;-88
2024/04/23 01:29:41;;;;;;;;;;;;;;;;;;;;;
2024/04/23 01:33:01;;;;;;;8.33;7.40;;;;;;;;;;6371974;22;20457;-89
2024/04/23 01:43:37;;;;;;;9.53;7.37;;;;;;;;;;6433627;22;20491;-87
2024/04/23 02:04:12;;;;;;;13.90;9.70;;;;;;;;;;6354257;22;20503;-87
2024/04/23 02:31:37;;;;;;;14.80;10.03;;;;;;;;;;6609554;21;20548;-90
2024/04/23 02:34:38;;;;;;;17.40;11.90;;;;;;;;;;6603569;21;20452;-88
2024/04/23 02:37:19;;;;;;;14.63;11.30;;;;;;;;;;6598409;21;20508;-89
2024/04/23 02:39:57;;;;;;;14.23;10.17;;;;;;;;;;6602917;21;20452;-87
2024/04/23 03:06:48;;;;;;;16.17;11.10;;;;;;;;;;6647018;21;20478;-87
2024/04/23 03:09:40;;;;;;;16.93;12.70;;;;;;;;;;6652859;21;20447;-87
2024/04/23 03:12:43;;;;;;;;;;;;;;;;;;;;;
2024/04/23 03:15:38;;;;;;;18.17;13.00;;;;;;;;;;6659059;21;20568;-88
2024/04/23 03:18:43;;;;;;;18.80;12.77;;;;;;;;;;6462993;22;20544;-87
2024/04/23 03:21:52;;;;;;;19.10;13.70;;;;;;;;;;6462267;22;20450;-88
2024/04/23 03:28:25;;;;;;;16.57;12.17;;;;;;;;;;6495401;22;20520;-88
2024/04/23 03:31:51;;;;;;;20.73;13.10;;;;;;;;;;6407979;22;20507;-89
2024/04/23 03:35:16;;;;;;;17.87;12.90;;;;;;;;;;6425936;22;20515;-89
2024/04/23 03:38:05;;;;;;;;;;;;;;;;;;;;;
2024/04/23 03:44:05;;;;;;;17.90;12.30;;;;;;;;;;6645807;21;20474;-86
2024/04/23 03:46:57;;;;;;;19.67;13.63;;;;;;;;;;6656470;21;20529;-87
2024/04/23 03:53:14;;;;;;;19.27;14.17;;;;;;;;;;6544585;21;20485;-88
2024/04/23 03:56:31;;;;;;;;;;;;;;;;;;;;;
2024/04/23 03:59:06;;;;;;;14.77;10.70;;;;;;;;;;6656393;21;20430;-87
2024/04/23 04:12:21;;;;;;;;;;;;;;;;;;;;;
2024/04/23 04:18:22;;;;;;;15.87;10.73;;;;;;;;;;6581420;21;20495;-86
2024/04/23 04:20:56;;;;;;;16.57;11.90;;;;;;;;;;6541259;21;20532;-87
2024/04/23 04:23:40;;;;;;;20.60;11.93;;;;;;;;;;6520198;21;20460;-85
2024/04/23 04:26:54;;;;;;;19.77;12.23;;;;;;;;;;6549385;21;20452;-87
2024/04/23 04:29:23;;;;;;;14.20;10.93;;;;;;;;;;6542272;21;20448;-86
2024/04/23 04:32:12;;;;;;;;;;;;;;;;;;;;;
2024/04/23 04:35:21;;;;;;;15.60;11.70;;;;;;;;;;6598426;21;20510;-87
2024/04/23 04:38:06;;;;;;;18.60;12.17;;;;;;;;;;6565474;21;20496;-88
2024/04/23 04:40:51;;;;;;;16.97;11.10;;;;;;;;;;6559573;21;20452;-88
2024/04/23 04:43:34;;;;;;;20.17;13.03;;;;;;;;;;6543604;21;20852;-88
2024/04/23 04:46:17;;;;;;;18.37;12.03;;;;;;;;;;6543351;21;20499;-87
2024/04/23 04:49:20;;;;;;;17.93;12.37;;;;;;;;;;6544186;21;20600;-86
2024/04/23 04:52:33;;;;;;;23.03;14.50;;;;;;;;;;6531453;21;20550;-86
2024/04/23 04:55:13;;;;;;;21.00;15.40;;;;;;;;;;6543086;21;20448;-87
2024/04/23 04:57:47;;;;;;;18.00;12.53;;;;;;;;;;6558329;21;20520;-87
2024/04/23 05:00:32;;;;;;;19.83;12.40;;;;;;;;;;6561864;21;20449;-85
2024/04/23 05:09:06;;;;;;;22.40;14.10;;;;;;;;;;6652328;21;20264;-87
2024/04/23 05:11:39;;;;;;;19.30;12.23;;;;;;;;;;6602354;21;20501;-88
2024/04/23 05:14:31;;;;;;;20.60;13.10;;;;;;;;;;6515549;21;20532;-88
2024/04/23 05:17:37;;;;;;;19.77;12.53;;;;;;;;;;6590819;21;20536;-86
2024/04/23 05:20:34;;;;;;;16.17;12.30;;;;;;;;;;6592079;21;20452;-89
2024/04/23 05:23:07;;;;;;;25.03;12.80;;;;;;;;;;6584616;21;20572;-87
2024/04/23 05:26:09;;;;;;;18.73;12.97;;;;;;;;;;6588365;21;20564;-87
2024/04/23 05:28:57;;;;;;;29.93;12.40;;;;;;;;;;6589462;21;20547;-88
2024/04/23 05:34:45;;;;;;;16.87;11.57;;;;;;;;;;6583903;21;20518;-89
2024/04/23 05:37:24;;;;;;;15.43;10.80;;;;;;;;;;6586755;21;20992;-88
2024/04/23 05:40:32;;;;;;;18.37;11.43;;;;;;;;;;6589152;21;20948;-88
2024/04/23 05:43:08;;;;;;;17.13;12.17;;;;;;;;;;6588402;21;20452;-88
2024/04/23 05:45:44;;;;;;;17.10;12.20;;;;;;;;;;6582242;21;20492;-88
2024/04/23 05:48:37;;;;;;;15.90;11.63;;;;;;;;;;6588663;21;20515;-88
2024/04/23 05:51:33;;;;;;;16.97;12.20;;;;;;;;;;6586849;21;20464;-88
2024/04/23 05:54:45;;;;;;;;;;;;;;;;;;;;;
2024/04/23 05:57:31;;;;;;;17.10;11.30;;;;;;;;;;6537812;21;20779;-87
2024/04/23 06:00:24;;;;;;;16.90;11.97;;;;;;;;;;6431056;22;20564;-87
2024/04/23 06:03:02;;;;;;;15.67;12.93;;;;;;;;;;6456244;22;20470;-88
2024/04/23 06:05:45;;;;;;;15.83;10.67;;;;;;;;;;6536343;21;20760;-87
2024/04/23 06:08:19;;;;;;;16.47;12.67;;;;;;;;;;6536965;22;20461;-86
2024/04/23 06:11:10;;;;;;;12.67;9.80;;;;;;;;;;6533813;22;20961;-87
2024/04/23 06:14:28;;;;;;;11.77;7.70;;;;;;;;;;6535839;21;20810;-87
2024/04/23 06:18:03;;;;;;;8.03;6.63;;;;;;;;;;6534514;21;20596;-88
2024/04/23 06:23:54;;;;;;;7.63;6.80;;;;;;;;;;6526285;21;20462;-88
2024/04/23 06:26:51;;;;;;;8.87;7.23;;;;;;;;;;6515406;22;20544;-89
2024/04/23 06:33:11;;;;;;;9.70;7.73;;;;;;;;;;6521203;21;20462;-88
2024/04/23 06:36:04;;;;;;;6.13;5.37;;;;;;;;;;6331990;22;20471;-88
2024/04/23 06:39:18;;;;;;;6.63;5.60;;;;;;;;;;6368197;22;20457;-87
2024/04/23 06:42:23;;;;;;;;;;;;;;;;;;;;;
2024/04/23 06:45:20;;;;;;;6.40;5.40;;;;;;;;;;6235460;22;20605;-88
2024/04/23 06:48:04;;;;;;;6.80;6.10;;;;;;;;;;6383145;22;20477;-89
2024/04/23 06:50:52;;;;;;;6.23;5.20;;;;;;;;;;6355808;22;20465;-88
2024/04/23 06:53:33;;;;;;;7.03;4.43;;;;;;;;;;6392998;22;20537;-88
2024/04/23 06:56:21;;;;;;;6.57;5.87;;;;;;;;;;6383570;21;20504;-89
2024/04/23 06:59:22;;;;;;;6.37;5.63;;;;;;;;;;6544025;21;20498;-88
2024/04/23 07:05:45;;;;;;;5.23;4.70;;;;;;;;;;6495881;21;20515;-89
2024/04/23 07:08:42;;;;;;;5.97;5.40;;;;;;;;;;6520185;22;20446;-89
2024/04/23 07:11:45;;;;;;;5.23;4.77;;;;;;;;;;6538175;21;20462;-87
2024/04/23 07:14:41;;;;;;;6.53;5.40;;;;;;;;;;6533463;21;20537;-87
2024/04/23 07:20:58;;;;;;;6.67;5.67;;;;;;;;;;6430615;21;20491;-87
2024/04/23 07:23:42;;;;;;;4.97;4.53;;;;;;;;;;6533432;21;20581;-86
2024/04/23 07:26:56;;;;;;;;;;;;;;;;;;;;;
2024/04/23 07:29:46;;;;;;;5.37;4.87;;;;;;;;;;6507781;21;20896;-87
2024/04/23 07:33:08;;;;;;;5.77;4.60;;;;;;;;;;6427227;21;20525;-87
2024/04/23 07:36:04;;;;;;;5.13;4.70;;;;;;;;;;6532128;21;20473;-88
2024/04/23 07:42:21;;;;;;;6.20;4.60;;;;;;;;;;6535565;22;20536;-86
2024/04/23 07:45:34;;;;;;;5.97;4.57;;;;;;;;;;6541784;21;20476;-88
2024/04/23 07:48:26;;;;;;;;;;;;;;;;;;;;;
2024/04/23 07:51:24;;;;;;;5.00;4.50;;;;;;;;;;6574278;21;20551;-87
2024/04/23 07:54:00;;;;;;;4.63;4.27;;;;;;;;;;6549394;21;20840;-88
2024/04/23 07:56:48;;;;;;;5.13;4.63;;;;;;;;;;6531291;21;20436;-89
2024/04/23 07:59:55;;;;;;;5.07;4.63;;;;;;;;;;6548034;21;20459;-85
2024/04/23 08:02:50;;;;;;;4.83;4.43;;;;;;;;;;6435124;22;20523;-89
2024/04/23 08:06:08;;;;;;;4.30;3.90;;;;;;;;;;6419678;22;20549;-90
2024/04/23 08:09:08;;;;;;;6.10;3.73;;;;;;;;;;6449122;22;20468;-91
2024/04/23 08:12:10;;;;;;;5.23;3.97;;;;;;;;;;6409526;22;20494;-87
2024/04/23 08:15:30;;;;;;;;;;;;;;;;;;;;;
2024/04/23 08:18:28;;;;;;;3.73;3.43;;;;;;;;;;6434140;22;20562;-88
2024/04/23 08:21:35;;;;;;;3.73;3.43;;;;;;;;;;6406910;22;20539;-88
2024/04/23 08:24:22;;;;;;;3.77;3.47;;;;;;;;;;6449678;22;20484;-88
2024/04/23 08:27:11;;;;;;;4.07;3.67;;;;;;;;;;6386322;22;20582;-89
2024/04/23 08:30:21;;;;;;;3.00;2.77;;;;;;;;;;6238975;22;20461;-87
2024/04/23 08:37:45;;;;;;;3.33;3.03;;;;;;;;;;6312930;22;20477;-87
2024/04/23 08:40:35;;;;;;;4.40;4.00;;;;;;;;;;6152727;23;20556;-87
2024/04/23 08:47:47;;;;;;;3.77;2.67;;;;;;;;;;6024571;23;20467;-88
2024/04/23 09:27:53;;;;;;;2.60;2.40;;;;;;;;;;6652118;21;20502;-88
2024/04/23 10:01:42;;;;;;;2.60;2.40;;;;;;;;;;6191085;23;20527;-88
2024/04/23 10:22:02;;;;;;;2.20;2.00;;;;;;;;;;6453434;22;20467;-88
2024/04/23 10:25:04;;;;;;;3.00;2.23;;;;;;;;;;6571205;21;20539;-88
2024/04/23 10:31:28;;;;;;;2.60;2.40;;;;;;;;;;6760207;21;20529;-87
2024/04/23 10:38:32;;;;;;;2.40;2.20;;;;;;;;;;6764675;21;20584;-88
2024/04/23 10:42:03;;;;;;;2.73;2.53;;;;;;;;;;6657642;21;20499;-88
2024/04/23 10:55:54;;;;;;;2.63;2.43;;;;;;;;;;6547620;22;20502;-87
2024/04/23 11:31:06;;;;;;;;;;;;;;;;;;;;;
2024/04/23 11:38:24;;;;;;;;;;;;;;;;;;;;;
2024/04/23 11:52:43;;;;;;;4.10;3.20;;;;;;;;;;6709961;21;20481;-84
2024/04/23 11:55:58;;;;;;;4.20;3.80;;;;;;;;;;6707856;21;20494;-87
2024/04/23 11:58:43;;;;;;;4.17;3.83;;;;;;;;;;6667655;21;20550;-82
2024/04/23 12:02:03;;;;;;;4.30;3.90;;;;;;;;;;6666305;21;20453;-89
2024/04/23 12:05:18;;;;;;;;;;;;;;;;;;;;;
2024/04/23 12:08:36;;;;;;;;;;;;;;;;;;;;;
2024/04/23 12:11:34;;;;;;;3.40;3.10;;;;;;;;;;6687485;21;20461;-88
2024/04/23 12:17:44;;;;;;;3.70;3.40;;;;;;;;;;6671028;21;20519;-87
2024/04/23 12:20:34;;;;;;;4.87;4.47;;;;;;;;;;6668221;21;20547;-87
2024/04/23 12:23:53;;;;;;;4.20;3.90;;;;;;;;;;6450226;22;20564;-86
2024/04/23 12:26:45;;;;;;;5.07;4.53;;;;;;;;;;6451449;22;20459;-86
2024/04/23 12:29:40;;;;;;;;;;;;;;;;;;;;;
2024/04/23 12:38:45;;;;;;;4.53;4.23;;;;;;;;;;6432535;22;20625;-85
2024/04/23 12:41:36;;;;;;;4.80;4.10;;;;;;;;;;6632424;21;20802;-87
2024/04/23 12:44:21;;;;;;;3.57;3.27;;;;;;;;;;6704868;21;20970;-86
2024/04/23 12:46:54;;;;;;;3.30;3.00;;;;;;;;;;6658246;21;20454;-87
2024/04/23 12:49:25;;;;;;;8.33;6.27;;;;;;;;;;6647459;21;20449;-86
2024/04/23 12:52:14;;;;;;;4.53;4.13;;;;;;;;;;6643869;21;20517;-87
2024/04/23 12:55:06;;;;;;;4.03;3.73;;;;;;;;;;6660719;21;20898;-86
2024/04/23 12:57:53;;;;;;;4.10;3.80;;;;;;;;;;6694902;21;20566;-85
2024/04/23 13:00:47;;;;;;;3.83;3.53;;;;;;;;;;6655972;21;21113;-86
2024/04/23 13:10:42;;;;;;;4.17;3.70;;;;;;;;;;6444589;21;20555;-85
2024/04/23 13:13:27;;;;;;;3.83;3.50;;;;;;;;;;6661602;21;20524;-85
2024/04/23 13:16:34;;;;;;;4.90;3.60;;;;;;;;;;6662096;21;20515;-88
2024/04/23 13:19:45;;;;;;;4.07;3.63;;;;;;;;;;6705199;21;20458;-88
2024/04/23 13:22:21;;;;;;;4.50;3.67;;;;;;;;;;6653694;21;20534;-88
2024/04/23 13:25:09;;;;;;;3.73;3.43;;;;;;;;;;6654828;21;20525;-87
2024/04/23 13:28:17;;;;;;;;;;;;;;;;;;;;;
2024/04/23 13:31:11;;;;;;;2.97;2.67;;;;;;;;;;6696719;21;20514;-88
2024/04/23 13:34:11;;;;;;;;;;;;;;;;;;;;;
2024/04/23 13:36:58;;;;;;;3.07;2.87;;;;;;;;;;6662072;21;20498;-87
2024/04/23 13:40:24;;;;;;;;;;;;;;;;;;;;;
2024/04/23 13:43:35;;;;;;;;;;;;;;;;;;;;;
2024/04/23 13:46:36;;;;;;;3.47;3.17;;;;;;;;;;6685156;21;20489;-87
2024/04/23 13:52:56;;;;;;;4.00;3.30;;;;;;;;;;6698209;21;20488;-87
2024/04/23 13:55:50;;;;;;;4.47;4.03;;;;;;;;;;6650732;21;20468;-88
2024/04/23 13:58:20;;;;;;;3.90;3.60;;;;;;;;;;6644668;21;21011;-87
2024/04/23 14:01:01;;;;;;;3.57;3.10;;;;;;;;;;6645390;21;20914;-87
2024/04/23 14:03:44;;;;;;;3.03;2.83;;;;;;;;;;6649155;21;20449;-85
2024/04/23 14:06:45;;;;;;;;;;;;;;;;;;;;;
2024/04/23 14:09:20;;;;;;;4.33;3.17;;;;;;;;;;6689812;21;20497;-87
2024/04/23 14:11:54;;;;;;;3.77;3.47;;;;;;;;;;6638284;21;20446;-87
2024/04/23 14:14:42;;;;;;;4.73;3.20;;;;;;;;;;6692481;21;20701;-87
2024/04/23 14:17:25;;;;;;;3.67;3.37;;;;;;;;;;6689571;21;20511;-86
2024/04/23 14:20:19;;;;;;;3.43;3.13;;;;;;;;;;6642687;21;20457;-87
2024/04/23 14:24:01;;;;;;;5.90;3.80;;;;;;;;;;6585742;21;20547;-87
2024/04/23 14:26:37;;;;;;;4.20;3.80;;;;;;;;;;6372257;22;20468;-87
2024/04/23 14:29:21;;;;;;;4.80;4.40;;;;;;;;;;6386969;22;21087;-86
2024/04/23 14:32:27;;;;;;;;;;;;;;;;;;;;;
2024/04/23 14:35:49;;;;;;;4.90;4.37;;;;;;;;;;6287370;22;20465;-86
2024/04/23 14:38:45;;;;;;;4.13;3.73;;;;;;;;;;6423657;22;20473;-87
2024/04/23 14:41:17;;;;;;;4.50;4.10;;;;;;;;;;6393258;22;20456;-86
2024/04/23 14:44:12;;;;;;;4.40;4.10;;;;;;;;;;6418574;21;20513;-87
2024/04/23 14:47:08;;;;;;;4.53;4.20;;;;;;;;;;6695566;21;20880;-86
2024/04/23 14:49:43;;;;;;;4.27;3.87;;;;;;;;;;6666273;21;20520;-86
2024/04/23 14:52:37;;;;;;;5.33;4.87;;;;;;;;;;6661529;21;20504;-86
2024/04/23 14:55:10;;;;;;;5.07;4.10;;;;;;;;;;6650592;21;20510;-87
2024/04/23 15:01:16;;;;;;;4.93;4.43;;;;;;;;;;6558398;21;20461;-86
2024/04/23 15:04:11;;;;;;;5.03;4.63;;;;;;;;;;6658712;21;20469;-86
2024/04/23 15:07:08;;;;;;;8.50;5.03;;;;;;;;;;6653127;21;20493;-86
2024/04/23 15:09:49;;;;;;;5.60;5.20;;;;;;;;;;6655441;21;20456;-87
2024/04/23 15:12:26;;;;;;;6.37;5.87;;;;;;;;;;6653983;21;20584;-86
2024/04/23 15:14:59;;;;;;;5.80;5.20;;;;;;;;;;6649390;21;20512;-88
2024/04/23 15:17:55;;;;;;;6.53;5.77;;;;;;;;;;6661385;21;20514;-86
2024/04/23 15:20:35;;;;;;;5.77;5.37;;;;;;;;;;6656768;21;20493;-84
2024/04/23 15:23:20;;;;;;;5.83;5.23;;;;;;;;;;6592520;21;20499;-87
2024/04/23 15:25:59;;;;;;;5.67;5.17;;;;;;;;;;6628727;21;20563;-88
2024/04/23 15:28:54;;;;;;;4.90;4.50;;;;;;;;;;6654974;21;20469;-88
2024/04/23 15:31:35;;;;;;;5.53;5.13;;;;;;;;;;6660284;21;20498;-86
2024/04/23 15:34:09;;;;;;;5.57;5.07;;;;;;;;;;6660754;21;20445;-87
2024/04/23 15:36:44;;;;;;;5.83;5.27;;;;;;;;;;6657537;21;20439;-86
2024/04/23 15:39:21;;;;;;;5.20;4.70;;;;;;;;;;6705338;21;20445;-86
2024/04/23 15:42:07;;;;;;;5.07;4.67;;;;;;;;;;6659091;21;20536;-87
2024/04/23 15:45:02;;;;;;;6.07;4.97;;;;;;;;;;6616729;21;20481;-86
2024/04/23 15:47:58;;;;;;;5.40;5.00;;;;;;;;;;6647018;21;20492;-86
2024/04/23 15:51:05;;;;;;;5.27;4.60;;;;;;;;;;6663367;21;20557;-85
2024/04/23 16:00:23;;;;;;;5.70;5.30;;;;;;;;;;6448273;22;20486;-86
2024/04/23 16:03:38;;;;;;;5.37;4.87;;;;;;;;;;6488190;22;20515;-87
2024/04/23 16:06:41;;;;;;;9.37;8.40;;;;;;;;;;6501057;22;20496;-86
2024/04/23 16:09:39;;;;;;;5.90;5.20;;;;;;;;;;6535047;22;20453;-86
2024/04/23 16:12:14;;;;;;;4.77;4.37;;;;;;;;;;6535054;22;20509;-87
2024/04/23 16:14:58;;;;;;;5.17;4.63;;;;;;;;;;6531024;22;20466;-86
2024/04/23 16:17:33;;;;;;;5.87;5.37;;;;;;;;;;6535341;22;20518;-86
2024/04/23 16:20:42;;;;;;;5.90;5.30;;;;;;;;;;6621097;21;20486;-86
2024/04/23 16:23:26;;;;;;;5.40;4.90;;;;;;;;;;6697631;21;20464;-86
2024/04/23 16:27:14;;;;;;;6.17;5.40;;;;;;;;;;6716228;21;20520;-86
2024/04/23 16:30:19;;;;;;;6.90;6.30;;;;;;;;;;6444978;22;20512;-86
2024/04/23 16:36:51;;;;;;;6.47;5.87;;;;;;;;;;6708793;21;20615;-86
2024/04/23 16:39:56;;;;;;;6.23;5.73;;;;;;;;;;6663245;21;20522;-86
2024/04/23 16:42:49;;;;;;;6.10;5.70;;;;;;;;;;6642994;21;20565;-86
2024/04/23 16:45:47;;;;;;;7.40;6.70;;;;;;;;;;6594088;21;20542;-89
2024/04/23 16:48:51;;;;;;;7.20;6.57;;;;;;;;;;6662374;21;20545;-86
2024/04/23 16:52:20;;;;;;;7.00;6.30;;;;;;;;;;6543226;22;20500;-87
2024/04/23 16:54:52;;;;;;;7.50;6.80;;;;;;;;;;6609817;21;20465;-88
2024/04/23 16:57:58;;;;;;;7.27;6.57;;;;;;;;;;6656200;21;20465;-86
2024/04/23 17:00:49;;;;;;;6.90;6.40;;;;;;;;;;6654244;21;20488;-86
2024/04/23 17:03:17;;;;;;;7.20;6.50;;;;;;;;;;6651728;21;20511;-87
2024/04/23 17:06:04;;;;;;;8.30;7.50;;;;;;;;;;6652638;21;20520;-86
2024/04/23 17:08:52;;;;;;;7.93;7.23;;;;;;;;;;6656650;21;20903;-84
2024/04/23 17:11:39;;;;;;;7.53;6.93;;;;;;;;;;6710872;21;20496;-86
2024/04/23 17:14:31;;;;;;;8.53;7.93;;;;;;;;;;6673197;21;20518;-87
2024/04/23 17:24:58;;;;;;;8.63;7.93;;;;;;;;;;6283383;22;20552;-87
2024/04/23 17:27:52;;;;;;;7.73;7.13;;;;;;;;;;6269394;22;20473;-87
2024/04/23 17:30:38;;;;;;;8.73;7.83;;;;;;;;;;6287890;22;20518;-83
2024/04/23 17:33:19;;;;;;;7.80;7.17;;;;;;;;;;6302926;22;20949;-87
2024/04/23 17:36:20;;;;;;;7.60;7.00;;;;;;;;;;6285180;22;20453;-88
2024/04/23 17:39:02;;;;;;;7.80;7.10;;;;;;;;;;6515223;21;20543;-88
2024/04/23 17:41:52;;;;;;;8.80;8.10;;;;;;;;;;6600386;21;20462;-86
2024/04/23 17:44:41;;;;;;;8.40;7.70;;;;;;;;;;6604288;21;20470;-87
2024/04/23 17:47:34;;;;;;;9.30;8.50;;;;;;;;;;6537875;21;20450;-87
2024/04/23 17:50:24;;;;;;;7.70;7.00;;;;;;;;;;6609380;21;20780;-89
2024/04/23 17:53:42;;;;;;;8.63;7.93;;;;;;;;;;6616108;21;20470;-88
2024/04/23 17:56:27;;;;;;;7.90;7.30;;;;;;;;;;6602815;21;20757;-88
2024/04/23 17:59:11;;;;;;;8.33;7.40;;;;;;;;;;6605337;21;20509;-87
2024/04/23 18:01:49;;;;;;;9.30;7.07;;;;;;;;;;6601604;21;20455;-87
2024/04/23 18:07:29;;;;;;;7.83;7.13;;;;;;;;;;6633202;21;20455;-88
2024/04/23 18:10:11;;;;;;;7.97;7.27;;;;;;;;;;6641758;21;20488;-89
2024/04/23 18:23:07;;;;;;;7.60;6.80;;;;;;;;;;6663782;21;20485;-87
2024/04/23 18:26:09;;;;;;;9.27;8.27;;;;;;;;;;6617977;21;20539;-87
2024/04/23 18:28:59;;;;;;;13.13;8.30;;;;;;;;;;6620443;21;20511;-87
2024/04/23 18:38:15;;;;;;;8.17;7.43;;;;;;;;;;6632476;21;20466;-87
2024/04/23 18:41:16;;;;;;;8.37;7.67;;;;;;;;;;6600284;21;20459;-87
2024/04/23 18:44:11;;;;;;;7.10;6.60;;;;;;;;;;6611570;21;20475;-88
2024/04/23 19:01:35;;;;;;;7.27;6.67;;;;;;;;;;6548663;22;20226;-89
2024/04/23 19:05:35;;;;;;;8.70;6.80;;;;;;;;;;6530266;22;20495;-87
2024/04/23 19:08:30;;;;;;;7.27;6.67;;;;;;;;;;6596921;21;20447;-87
2024/04/23 19:18:48;;;;;;;8.10;6.70;;;;;;;;;;6491052;21;20456;-87
2024/04/23 19:22:04;;;;;;;;;;;;;;;;;;;;;
2024/04/23 19:25:02;;;;;;;6.70;5.83;;;;;;;;;;6471032;21;20465;-86
2024/04/23 19:28:07;;;;;;;6.90;6.27;;;;;;;;;;6496120;22;20550;-88
2024/04/23 19:30:46;;;;;;;7.93;6.60;;;;;;;;;;6552324;21;21056;-88
2024/04/23 19:33:38;;;;;;;7.00;6.40;;;;;;;;;;6547550;22;20505;-87
2024/04/23 20:03:29;;;;;;;6.70;6.20;;;;;;;;;;6538214;22;20510;-86
2024/04/23 20:06:25;;;;;;;;;;;;;;;;;;;;;
2024/04/23 20:09:25;;;;;;;6.67;6.03;;;;;;;;;;6595094;21;20476;-88
2024/04/23 20:12:36;;;;;;;6.67;5.83;;;;;;;;;;6542808;21;20493;-87
2024/04/23 20:21:52;;;;;;;7.10;5.80;;;;;;;;;;6505140;21;20495;-87
2024/04/23 20:25:14;;;;;;;6.13;5.53;;;;;;;;;;6570144;21;20532;-88
2024/04/23 20:28:22;;;;;;;6.97;6.27;;;;;;;;;;6645678;21;20539;-87
2024/04/23 20:31:15;;;;;;;7.70;6.50;;;;;;;;;;6548002;21;20509;-87
2024/04/23 20:34:34;;;;;;;;;;;;;;;;;;;;;
2024/04/23 20:49:55;;;;;;;6.80;6.03;;;;;;;;;;6594625;21;20511;-88
2024/04/23 20:52:52;;;;;;;7.17;6.53;;;;;;;;;;6598061;21;20523;-87
2024/04/23 20:55:36;;;;;;;7.73;7.03;;;;;;;;;;6588767;21;20480;-87
2024/04/23 20:58:53;;;;;;;20.33;6.73;;;;;;;;;;6492598;21;20504;-88
2024/04/23 21:02:07;;;;;;;7.30;6.43;;;;;;;;;;6590125;21;20890;-87
2024/04/23 21:15:54;;;;;;;6.60;6.00;;;;;;;;;;6394559;22;20505;-88
2024/04/23 21:19:20;;;;;;;;;;;;;;;;;;;;;
2024/04/23 21:44:58;;;;;;;6.03;5.50;;;;;;;;;;6514101;21;20470;-88
2024/04/23 21:48:13;;;;;;;;;;;;;;;;;;;;;
2024/04/23 21:58:14;;;;;;;5.23;4.73;;;;;;;;;;6568563;21;20455;-88
2024/04/23 22:01:14;;;;;;;5.57;3.90;;;;;;;;;;6604010;21;20499;-87
2024/04/23 22:04:16;;;;;;;4.80;4.00;;;;;;;;;;6643030;21;20459;-87
2024/04/23 22:07:03;;;;;;;4.53;4.13;;;;;;;;;;6600569;21;20455;-87
2024/04/23 22:09:57;;;;;;;4.27;3.70;;;;;;;;;;6473611;21;20447;-88
2024/04/23 22:13:06;;;;;;;4.63;4.23;;;;;;;;;;6601391;21;20462;-87
2024/04/23 22:19:37;;;;;;;6.53;4.83;;;;;;;;;;6515908;21;20454;-87
2024/04/23 22:26:20;;;;;;;7.83;4.30;;;;;;;;;;6385078;22;20537;-87
2024/04/23 22:43:12;;;;;;;4.50;4.10;;;;;;;;;;6388777;22;20538;-88
2024/04/23 22:46:20;;;;;;;5.13;4.50;;;;;;;;;;6351527;22;20559;-87
2024/04/23 22:52:31;;;;;;;4.30;3.90;;;;;;;;;;6194238;22;20498;-88
2024/04/23 23:02:40;;;;;;;6.00;5.50;;;;;;;;;;6271343;22;20545;-87
2024/04/23 23:05:49;;;;;;;7.27;5.30;;;;;;;;;;6237053;22;20474;-87
2024/04/23 23:08:30;;;;;;;5.13;4.47;;;;;;;;;;6183394;22;20460;-87
2024/04/23 23:11:00;;;;;;;5.27;4.77;;;;;;;;;;6362603;22;20462;-87
2024/04/23 23:13:28;;;;;;;5.40;4.93;;;;;;;;;;6345111;22;20461;-86
2024/04/23 23:15:58;;;;;;;5.67;5.07;;;;;;;;;;6342304;22;20482;-88
2024/04/23 23:18:29;;;;;;;6.47;5.27;;;;;;;;;;6358459;22;20457;-88
2024/04/23 23:21:04;;;;;;;5.40;4.87;;;;;;;;;;6612746;21;20439;-88
2024/04/23 23:23:34;;;;;;;6.00;5.40;;;;;;;;;;6610227;21;20466;-87
2024/04/23 23:26:02;;;;;;;8.37;5.90;;;;;;;;;;6643703;21;20519;-85
2024/04/23 23:28:30;;;;;;;6.20;5.00;;;;;;;;;;6641923;21;20831;-88
2024/04/23 23:31:03;;;;;;;8.13;5.67;;;;;;;;;;6595540;21;20455;-87
2024/04/23 23:33:31;;;;;;;7.13;5.67;;;;;;;;;;6596154;21;20543;-86
2024/04/23 23:36:02;;;;;;;5.97;5.10;;;;;;;;;;6606226;21;20474;-87
2024/04/23 23:38:33;;;;;;;6.80;5.37;;;;;;;;;;6611522;21;20507;-87
2024/04/23 23:41:08;;;;;;;6.83;5.50;;;;;;;;;;6657788;21;20463;-87
2024/04/23 23:43:43;;;;;;;7.67;6.40;;;;;;;;;;6613335;21;20493;-88
2024/04/23 23:46:10;;;;;;;6.43;5.53;;;;;;;;;;6660288;21;20554;-87
2024/04/23 23:48:37;;;;;;;7.77;6.03;;;;;;;;;;6617614;21;20458;-87
2024/04/23 23:51:06;;;;;;;8.30;6.57;;;;;;;;;;6616940;21;20431;-86
2024/04/23 23:53:38;;;;;;;8.90;6.83;;;;;;;;;;6617393;21;20466;-87
2024/04/23 23:56:19;;;;;;;9.47;6.77;;;;;;;;;;6620781;21;20442;-86
2024/04/23 23:58:49;;;;;;;7.27;6.07;;;;;;;;;;6617193;21;20491;-88
